Logo AVAMET
Benvolgut visitant, si us plau, ingressa Recuperar contrasenya
AVAMET paisatges

Inforatge Catarroja Ajuntament

Dades diàries. Acumulats / Últims 30 dies disponibles

Data Temperatura (°C) Humitat rel. (%) Pressió rel. (hPa) Vent (km/h) Precipitació
Mínima Mitjana Màxima Amplitud
tèrmica
Mínima Mitjana Màxima Mínima Mitjana Màxima Predom. Mitjana Ràfega
màxima
Total
(mm)
Índex-n
Mínima Mitjana Màxima Mínima Mitjana Màxima n
0 a 1
P0 max
mm 5'
Dades mensuals acumulades fins l'últim dia disponible
06/2020 17,7 18,1 18,7 22,8 25,4 27,2 30,3 12,6 45 71 88 1.002 1.013 1.017   5,6 35,4 0,0
Dades anuals acumulades fins l'últim dia disponible
2020 2,6 11,7 20,6 15,6 8,4 20,1 33,4 30,8 20 72 97 999 1.020 1.035   6,3 90,1 286,4
Últims 30 dies disponibles
03-06-2020 17,7     23,8     30,3 12,6 45 69 88 1.002 1.008 1.014 E 6,0 35,4 0,0
02-06-2020 17,9     22,3     25,4 7,5 51 73 82 1.013 1.015 1.017 E 5,1 24,1 0,0
01-06-2020 18,7     22,3     25,8 7,1 52 72 82 1.015 1.016 1.017 E 5,8 27,4 0,0
31-05-2020 16,6     21,5     25,4 8,8 49 68 79 1.012 1.014 1.016 SSE 7,6 32,2 0,0
30-05-2020 16,9     21,8     25,4 8,5 47 65 76 1.014 1.016 1.017 E 6,6 30,6 0,0
29-05-2020 15,9     21,9     26,7 10,8 40 62 79 1.014 1.017 1.022 E 8,4 37,0 0,0
28-05-2020 17,1     21,6     25,0 7,9 47 72 87 1.021 1.025 1.027 E 5,8 25,7 0,0
27-05-2020 17,2     21,9     26,9 9,7 44 68 80 1.025 1.026 1.027 NE 5,8 30,6 0,0
26-05-2020 17,4     21,7     25,5 8,1 54 71 85 1.025 1.026 1.027 E 4,5 20,9 0,0
25-05-2020 16,9     20,9     25,0 8,1 55 71 85 1.024 1.026 1.028 E 4,2 19,3 0,0
24-05-2020 20,6     22,1     24,2 3,6 63 74 87 1.027 1.028 1.029 NE 5,6 22,5 0,0
23-05-2020 18,3     22,9     26,4 8,1 52 67 78 1.023 1.025 1.027 E 4,8 25,7 0,0
22-05-2020 19,2     23,6     28,7 9,5 46 64 76 1.020 1.023 1.025 NE 4,0 20,9 0,0
21-05-2020 17,4     22,9     28,8 11,4 37 64 82 1.018 1.019 1.022 E 4,5 24,1 0,0
20-05-2020 17,6     22,7     27,9 10,3 41 63 83 1.015 1.016 1.018 NE 4,5 25,7 0,0
19-05-2020 15,6     22,4     28,3 12,7 38 59 78 1.015 1.018 1.021 WSW 5,3 25,7 0,0
18-05-2020 15,2     20,4     25,7 10,5 45 68 84 1.019 1.021 1.023 W 5,0 25,7 0,0
17-05-2020 15,3     19,4     23,3 8,0 46 69 89 1.019 1.021 1.023 E 5,3 25,7 0,2
16-05-2020 15,8     18,2     21,3 5,5 60 75 88 1.015 1.017 1.020 WNW 4,3 27,4 0,0
15-05-2020 13,5     17,2     20,7 7,2 54 74 88 1.010 1.013 1.016 WSW 4,0 27,4 0,4
14-05-2020 13,2     17,3     19,6 6,4 56 73 91 1.003 1.006 1.010 WSW 9,3 41,8 16,0 0,30 1,80
13-05-2020 14,4     19,6     25,3 10,9 36 60 85 1.004 1.006 1.008 WSW 11,6 40,2 0,2
12-05-2020 17,1     19,4     22,1 5,0 54 70 88 1.007 1.009 1.012 NE 6,4 37,0 0,8
11-05-2020 16,6     20,9     25,7 9,1 37 54 70 1.007 1.008 1.011 WSW 18,5 56,3 0,0
10-05-2020 15,6     19,8     24,9 9,3 33 66 96 1.004 1.006 1.010 WSW 13,5 56,3 13,4 0,65 7,80
09-05-2020 17,0     20,0     23,6 6,6 63 79 88 1.009 1.012 1.017 E 4,5 22,5 0,0
08-05-2020 17,1     20,2     22,7 5,6 62 75 86 1.014 1.017 1.019 NE 5,0 32,2 0,0
07-05-2020 17,0     20,9     25,2 8,2 41 73 92 1.018 1.019 1.020 NE 4,3 24,1 0,0
06-05-2020 17,0     21,3     25,6 8,6 52 72 91 1.015 1.017 1.019 E 3,7 24,1 0,0
05-05-2020 16,9     20,9     25,9 9,0 52 75 89 1.013 1.014 1.016 E 3,4 20,9 0,0
Últims 13 mesos disponibles
05/2020 13,2 16,8 20,6 21,1 19,6 25,5 33,4 20,2 49 67 79 1.006 1.017 1.028 E 6,5 56,3 31,0
04/2020 8,4 12,8 17,7 16,1 15,8 20,1 26,3 17,9 46 76 93 1.006 1.016 1.027 ESE 5,3 49,9 38,8
03/2020 6,1 10,8 15,7 14,2 10,7 18,1 24,3 18,2 43 70 92 1.007 1.018 1.027 NW 8,0 90,1 63,2
02/2020 6,1 10,1 14,4 14,7 15,0 20,5 26,3 20,2 47 70 89 1.014 1.025 1.033 W 4,8 53,1 1,6
01/2020 2,6 7,2 14,7 10,9 8,4 15,5 20,9 18,3 55 76 94 1.017 1.026 1.033 W 6,0 72,4 151,8
12/2019 5,4 10,8 17,9 13,8 13,1 17,6 24,6 19,2 53 70 92 1.002 1.019 1.033 WSW 8,6 93,3 76,6
11/2019 5,7 12,1 20,9 15,6 15,7 19,7 28,8 23,1 41 57 78 999 1.011 1.019 WSW 11,7 75,6 3,6
10/2019 11,8 16,4 20,5 20,3 16,1 25,1 34,9 23,1 42 67 83 1.008 1.017 1.022 WNW 5,5 51,5 25,0
09/2019 15,4 20,4 24,1 23,9 21,8 27,5 33,9 18,5 40 72 84 1.010 1.018 1.025 SSE 6,0 56,3 94,6
08/2019 18,4 22,7 27,2 26,5 27,1 30,4 41,4 23,0 43 71 79 1.011 1.016 1.021 SSE 5,6 55,6 10,6
07/2019 21,4 23,0 25,3 26,8 27,7 30,6 37,6 16,2 48 68 77 1.006 1.014 1.021 SSE 6,1 56,3 6,8
06/2019 12,9 18,3 22,8 22,7 21,4 26,7 33,7 20,8 38 66 79 1.009 1.016 1.022 SE 6,2 59,6 0,0
05/2019 9,1 14,7 20,9 18,8 18,8 23,0 32,3 23,2 49 67 82 1.005 1.016 1.025 SSE 6,7 56,3 18,0
Tots els anys disponibles
2019 1,2 14,7 27,2 18,7 11,7 23,1 41,4 40,2 35 66 95 995 1.017 1.034 WSW 7,1 93,3 333,6
2018 2,4 14,7 25,6 18,5 8,7 22,7 36,2 33,8 40 68 93 993 1.016 1.033 S 6,8 88,8 812,8
2017 0,4 14,4 26,0 18,5 9,2 22,8 36,2 35,8 31 68 90 997 1.019 1.036 SSO 5,3 88,8 340,4
Temperatura (°C)
Humitat relativa (%)
Velocitat del vent i ràfega màxima (km/h)
Direcció del vent (°)
Pressió (hPa)
Precipitació (mm)
Nota sobre les dades: s'avisa a l'usuari de la provisionalitat i no oficialitat d'aquestes dades
Logo AVAMET blanc
Web allotjada a Sollutia
Llicència de Creative CommonsLa web d'AVAMET i els seus continguts estan subjectes a una llicència de
Reconeixement - No Comercial - Compartir igual
Últimes estacions: Biar - IES Biar (Soci), Xodos - la Vega (Soci), la Vall d'Alba - Centre (Ajuntament soci), Chera (Ajuntament soci) - - -